Ireland METAR reports

 

EIDW - Dublin Airport, Ireland
Distance from station: WNW 13km
Updated: 20/10/2020 14:30
Mostly cloudy
Mostly cloudy
 Wind from S
Wind: S 31 km/h
Temperature: 14°C
Dew Point: 10°C
Humidity: 77%
Barometer: 986 hPa
Clouds: Mostly cloudy
Visibility: 10 km
Cloud details: Few Clouds 610 m
Mostly cloudy 762 m
Mostly cloudy 1128 m
2020/10/20 13:30 EIDW 201330Z 17017KT 140V200 9999 FEW020CB BKN025 BKN037 14/10 Q0986 NOSIG
EIME - Casement (mil), Ireland
Distance from station: WSW 26km
Updated: 20/10/2020 14:30
Light rain, Drizzle, Mostly cloudy
Light rain, Drizzle, Mostly cloudy
 Wind from S
Wind: S 46 km/h
Temperature: 13°C
Dew Point: 11°C
Humidity: 88%
Barometer: 985 hPa
Summary: Light rain, Drizzle
Clouds: Mostly cloudy
Visibility: 7 km
Cloud details: Few Clouds 396 m
Partly cloudy 732 m
Mostly cloudy 1463 m
2020/10/20 13:30 EIME 201330Z 19025KT 7000 -RADZ FEW013 SCT024 BKN048 13/11 Q0985
 
EGAC - Belfast Harbour, United Kingdom
Distance from station: N 140km
Updated: 20/10/2020 14:50
Light rain, Overcast
Light rain, Overcast
 Wind from SSE
Wind: SSE 31 km/h
Temperature: 14°C
Dew Point: 11°C
Humidity: 82%
Barometer: 987 hPa
Summary: Light rain
Clouds: Overcast
Visibility: 8 km
Cloud details: Mostly cloudy 579 m
Mostly cloudy 792 m
Overcast 1494 m
2020/10/20 13:50 EGAC 201350Z AUTO 16017KT 8000 -RA BKN019/// BKN026/// OVC049/// 14/11 Q0987
EGAA - Belfast/Aldergro, United Kingdom
Distance from station: N 141km
Updated: 20/10/2020 14:50
Light rain, Mostly cloudy
Light rain, Mostly cloudy
 Wind from SE
Wind: SE 22 km/h
Temperature: 13°C
Dew Point: 12°C
Humidity: 94%
Barometer: 987 hPa
Summary: Light rain
Clouds: Mostly cloudy
Visibility: 8 km
Cloud details: Partly cloudy 549 m
Mostly cloudy 1219 m
2020/10/20 13:50 EGAA 201350Z 14012KT 8000 -RA SCT018 BKN040 13/12 Q0987
 
EIWF - Waterford Arpt, Ireland
Distance from station: SSW 148km
Updated: 20/10/2020 14:30
Mostly cloudy
Mostly cloudy
 Wind from S
Wind: S 59 km/h, Gust: 85 km/h
Temperature: 13°C
Dew Point: 12°C
Humidity: 94%
Barometer: 987 hPa
Clouds: Mostly cloudy
Visibility: 9 km
Cloud details: Partly cloudy 732 m
Mostly cloudy 914 m
2020/10/20 13:30 EIWF 201330Z 19032G46KT 9000 SCT024 BKN030 13/12 Q0987 R21/1/////
EIKN - Connaught Apt, Ireland
Distance from station: WNW 191km
Updated: 20/10/2020 14:30
Light rain, Overcast
Light rain, Overcast
 Wind from SE
Wind: SE 22 km/h
Temperature: 12°C
Dew Point: 12°C
Humidity: 100%
Barometer: 979 hPa
Summary: Light rain
Clouds: Overcast
Visibility: 5 km
Cloud details: Mostly cloudy 61 m
Overcast 274 m
2020/10/20 13:30 EIKN 201330Z 14012KT 5000 -RA BKN002 OVC009 12/12 Q0979 NOSIG
 
EISG - Sligo Arpt, Ireland
Distance from station: WNW 195km
Updated: 20/10/2020 14:30
Light rain, Overcast
Light rain, Overcast
 Wind from ESE
Wind: ESE 22 km/h
Temperature: 13°C
Dew Point: 13°C
Humidity: 100%
Barometer: 980 hPa
Summary: Light rain
Clouds: Overcast
Visibility: 5 km
Cloud details: Overcast 518 m
2020/10/20 13:30 EISG 201330Z 11012KT 090V150 5000 -RA OVC017 13/13 Q0980
EGAE - Eglinton/Londond, United Kingdom
Distance from station: NNW 198km
Updated: 20/10/2020 14:50
Nearby showers, Mostly cloudy
Nearby showers, Mostly cloudy
 Wind from SE
Wind: SE 26 km/h
Temperature: 15°C
Dew Point: 13°C
Humidity: 88%
Barometer: 985 hPa
Summary: Nearby Showers
Clouds: Mostly cloudy
Visibility: 9 km
Cloud details: Few Clouds 305 m
Partly cloudy 549 m
Mostly cloudy 975 m
2020/10/20 13:50 EGAE 201350Z 13014KT 9000 VCSH FEW010 SCT018 BKN032 15/13 Q0985
 
EINN - Shannon Airport, Ireland
Distance from station: WSW 204km
Updated: 20/10/2020 14:30
Light rain, Mostly cloudy
Light rain, Mostly cloudy
 Wind from SSW
Wind: SSW 28 km/h
Temperature: 14°C
Dew Point: 12°C
Humidity: 88%
Barometer: 981 hPa
Summary: Light rain
Clouds: Mostly cloudy
Visibility: 10 km
Cloud details: Few Clouds 305 m
Mostly cloudy 518 m
Mostly cloudy 914 m
2020/10/20 13:30 EINN 201330Z 20015KT 9999 -RA FEW010 BKN017 BKN030 14/12 Q0981 NOSIG
EICK - Cork Arpt/Corcai, Ireland
Distance from station: SW 234km
Updated: 20/10/2020 14:30
Mostly cloudy
Mostly cloudy
 Wind from SSW
Wind: SSW 44 km/h
Temperature: 13°C
Dew Point: 11°C
Humidity: 88%
Barometer: 984 hPa
Clouds: Mostly cloudy
Visibility: 10 km
Cloud details: Mostly cloudy 244 m
Mostly cloudy 488 m
2020/10/20 13:30 EICK 201330Z 21024KT 9999 BKN008 BKN016 13/11 Q0984 NOSIG